Time;durP1;ratioP1;P1;durP2;ratioP2;P2;SDS_P1;SDS_P2;PMS_P1;PMS_P2;Temp;Humidity;BMP_temperature;BMP_pressure;BME280_temperature;BME280_humidity;BME280_pressure;Samples;Min_cycle;Max_cycle;Signal;HPM_P1;HPM_P2
2022/06/27 00:00:24;;;;;;;4.62;3.08;;;;;;;19.60;74.63;100908.91;1750014;82;21136;-86
2022/06/27 00:02:52;;;;;;;5.87;3.40;;;;;;;19.58;74.66;100907.38;1752391;82;20853;-87
2022/06/27 00:05:18;;;;;;;3.62;3.30;;;;;;;19.55;74.76;100909.02;1750469;80;20979;-87
2022/06/27 00:07:45;;;;;;;6.17;4.87;;;;;;;19.52;74.83;100911.94;1749980;82;20906;-85
2022/06/27 00:10:12;;;;;;;5.15;4.42;;;;;;;19.49;74.87;100905.09;1750080;82;21413;-86
2022/06/27 00:12:39;;;;;;;7.72;4.45;;;;;;;19.46;75.06;100916.02;1749958;82;21220;-86
2022/06/27 00:15:08;;;;;;;4.87;4.47;;;;;;;19.43;75.38;100918.48;1749842;82;20872;-86
2022/06/27 00:17:34;;;;;;;16.67;7.78;;;;;;;19.41;75.64;100918.28;1749837;82;20861;-86
2022/06/27 00:20:01;;;;;;;6.97;5.95;;;;;;;19.35;75.79;100912.20;1749865;82;20976;-86
2022/06/27 00:22:29;;;;;;;14.13;5.83;;;;;;;19.33;75.96;100907.01;1750046;80;20928;-87
2022/06/27 00:24:56;;;;;;;4.90;4.10;;;;;;;19.29;76.06;100913.59;1750024;82;21180;-86
2022/06/27 00:27:22;;;;;;;5.80;4.03;;;;;;;19.27;76.12;100907.56;1749792;80;20884;-86
2022/06/27 00:29:49;;;;;;;5.42;4.95;;;;;;;19.25;76.45;100911.72;1749830;82;20864;-85
2022/06/27 00:32:16;;;;;;;4.83;3.90;;;;;;;19.24;76.61;100920.66;1749898;82;20924;-85
2022/06/27 00:34:43;;;;;;;4.53;3.67;;;;;;;19.22;76.60;100911.98;1750045;80;20909;-85
2022/06/27 00:37:10;;;;;;;5.37;3.80;;;;;;;19.20;76.59;100915.77;1748805;82;21485;-87
2022/06/27 00:39:36;;;;;;;4.45;3.15;;;;;;;19.19;76.61;100918.09;1747763;81;20853;-87
2022/06/27 00:42:03;;;;;;;6.10;3.58;;;;;;;19.17;76.62;100924.87;1747391;82;20924;-85
2022/06/27 00:44:42;;;;;;;6.53;3.37;;;;;;;19.15;76.70;100928.16;1747152;82;20936;-84
2022/06/27 00:47:11;;;;;;;2.95;2.75;;;;;;;19.13;76.75;100925.29;1747234;80;21456;-85
2022/06/27 00:49:40;;;;;;;5.40;3.37;;;;;;;19.11;76.67;100923.26;1747306;80;21801;-86
2022/06/27 00:52:09;;;;;;;5.30;3.17;;;;;;;19.10;76.68;100929.54;1747182;80;20908;-85
2022/06/27 00:54:38;;;;;;;3.50;2.67;;;;;;;19.06;76.75;100919.70;1747306;80;20893;-85
2022/06/27 00:57:06;;;;;;;4.37;3.10;;;;;;;19.03;76.83;100918.63;1747246;80;20905;-85
2022/06/27 00:59:35;;;;;;;4.67;2.95;;;;;;;19.01;76.93;100925.43;1747328;82;20928;-85
2022/06/27 01:02:01;;;;;;;4.60;3.20;;;;;;;19.00;77.12;100920.25;1747563;80;21131;-85
2022/06/27 01:04:29;;;;;;;6.58;3.35;;;;;;;18.98;77.26;100922.20;1747421;80;21545;-86
2022/06/27 01:06:55;;;;;;;4.37;3.30;;;;;;;18.94;77.41;100922.98;1747320;80;20941;-85
2022/06/27 01:09:22;;;;;;;3.98;3.27;;;;;;;18.91;77.48;100925.91;1747309;82;20928;-85
2022/06/27 01:11:49;;;;;;;4.08;3.50;;;;;;;18.88;77.48;100922.70;1747532;80;20963;-85
2022/06/27 01:14:17;;;;;;;3.42;3.10;;;;;;;18.84;77.44;100924.28;1747402;80;21143;-85
2022/06/27 01:16:44;;;;;;;4.28;3.58;;;;;;;18.82;77.31;100928.06;1747451;82;20899;-85
2022/06/27 01:19:14;;;;;;;4.53;3.17;;;;;;;18.79;77.44;100924.37;1747499;81;21454;-85
2022/06/27 01:21:49;;;;;;;4.42;3.85;;;;;;;18.75;77.41;100925.58;1747625;80;21119;-86
2022/06/27 01:24:17;;;;;;;6.00;3.37;;;;;;;18.72;77.51;100928.03;1746358;80;20861;-86
2022/06/27 01:26:44;;;;;;;4.92;3.47;;;;;;;18.70;77.51;100926.46;1747330;81;21138;-86
2022/06/27 01:29:12;;;;;;;5.50;3.30;;;;;;;18.68;77.72;100926.62;1747163;80;20853;-87
2022/06/27 01:31:39;;;;;;;5.90;3.95;;;;;;;18.67;77.78;100927.58;1747425;80;20925;-85
2022/06/27 01:34:06;;;;;;;5.30;4.03;;;;;;;18.65;77.93;100924.22;1747915;81;20932;-86
2022/06/27 01:36:42;;;;;;;4.20;3.77;;;;;;;18.64;78.07;100925.21;1726184;81;20928;-85
2022/06/27 01:39:14;;;;;;;4.12;3.72;;;;;;;18.62;77.90;100927.16;1747461;80;21138;-85
2022/06/27 01:41:49;;;;;;;4.92;3.62;;;;;;;18.60;78.08;100931.77;1747455;80;20928;-86
2022/06/27 01:44:16;;;;;;;;;;;;;;;18.58;78.28;100929.24;1750073;80;20853;-85
2022/06/27 01:46:49;;;;;;;3.80;3.45;;;;;;;18.58;78.40;100927.08;1747409;80;20071;-84
2022/06/27 01:49:17;;;;;;;4.33;3.33;;;;;;;18.55;78.56;100932.18;1746719;80;21315;-84
2022/06/27 01:51:45;;;;;;;4.78;3.67;;;;;;;18.52;78.59;100929.81;1747350;80;21273;-86
2022/06/27 01:54:13;;;;;;;4.75;3.60;;;;;;;18.51;78.68;100933.42;1747417;80;20968;-86
2022/06/27 01:56:42;;;;;;;4.58;3.40;;;;;;;18.50;78.88;100930.89;1747415;82;20920;-86
2022/06/27 01:59:09;;;;;;;3.85;3.55;;;;;;;18.48;78.93;100936.36;1747420;80;20979;-86
2022/06/27 02:01:36;;;;;;;6.90;4.03;;;;;;;18.47;78.90;100942.63;1726478;82;21402;-87
2022/06/27 02:04:03;;;;;;;3.75;3.45;;;;;;;18.46;79.10;100945.45;1747325;82;21846;-86
2022/06/27 02:06:30;;;;;;;3.67;3.37;;;;;;;18.43;79.21;100942.08;1747469;82;20920;-86
2022/06/27 02:08:57;;;;;;;4.75;4.10;;;;;;;18.42;79.37;100947.52;1747477;80;20929;-85
2022/06/27 02:11:25;;;;;;;4.12;3.58;;;;;;;18.40;79.65;100956.11;1747265;80;21403;-86
2022/06/27 02:13:54;;;;;;;6.37;3.40;;;;;;;18.38;79.86;100944.28;1747550;82;20959;-85
2022/06/27 02:16:23;;;;;;;3.67;3.37;;;;;;;18.37;79.81;100947.92;1747318;82;21149;-86
2022/06/27 02:18:51;;;;;;;12.65;4.55;;;;;;;18.36;79.87;100942.73;1726407;82;20975;-87
2022/06/27 02:21:20;;;;;;;5.72;3.90;;;;;;;18.34;79.83;100946.02;1747391;80;20845;-86
2022/06/27 02:23:47;;;;;;;7.30;3.80;;;;;;;18.32;79.85;100943.98;1747376;80;20864;-86
2022/06/27 02:26:14;;;;;;;3.92;3.52;;;;;;;18.31;79.98;100944.97;1747357;82;20960;-87
2022/06/27 02:28:42;;;;;;;4.72;3.37;;;;;;;18.29;80.15;100949.08;1747553;82;21129;-86
2022/06/27 02:31:09;;;;;;;8.18;4.08;;;;;;;18.28;80.20;100947.91;1747314;80;20971;-87
2022/06/27 02:33:39;;;;;;;4.17;3.58;;;;;;;18.25;80.31;100947.66;1747586;80;20900;-86
2022/06/27 02:36:07;;;;;;;4.92;4.17;;;;;;;18.25;80.33;100948.98;1750133;82;20881;-88
2022/06/27 02:38:34;;;;;;;6.53;4.08;;;;;;;18.25;80.43;100951.64;1750394;82;20908;-87
2022/06/27 02:41:04;;;;;;;5.22;4.40;;;;;;;18.25;80.47;100941.52;1750381;82;20936;-88
2022/06/27 02:43:33;;;;;;;6.67;3.58;;;;;;;18.26;80.42;100946.70;1749943;80;20928;-87
2022/06/27 02:46:01;;;;;;;8.85;3.80;;;;;;;18.27;80.45;100948.37;1750449;81;20928;-87
2022/06/27 02:48:31;;;;;;;6.58;4.90;;;;;;;18.29;80.43;100945.59;1722714;82;21526;-87
2022/06/27 02:51:03;;;;;;;5.10;4.17;;;;;;;18.31;80.35;100950.28;1750145;81;20999;-86
2022/06/27 02:53:36;;;;;;;5.80;4.08;;;;;;;18.34;80.36;100950.86;1750183;82;21130;-87
2022/06/27 02:56:10;;;;;;;3.80;3.37;;;;;;;18.38;80.31;100950.09;1746356;82;20893;-87
2022/06/27 02:59:04;;;;;;;4.80;4.10;;;;;;;18.40;80.31;100951.63;1750266;80;20932;-86
2022/06/27 03:01:31;;;;;;;3.70;3.30;;;;;;;18.43;80.33;100947.39;1750017;80;21417;-86
2022/06/27 03:03:59;;;;;;;4.53;3.98;;;;;;;18.48;80.41;100954.95;1750313;80;20975;-86
2022/06/27 03:06:27;;;;;;;7.10;4.35;;;;;;;18.52;80.68;100951.05;1750843;82;20900;-86
2022/06/27 03:08:56;;;;;;;3.77;3.42;;;;;;;18.57;80.70;100951.48;1750529;82;21366;-85
2022/06/27 03:11:24;;;;;;;6.70;3.92;;;;;;;18.63;80.88;100955.39;1750899;81;20932;-85
2022/06/27 03:13:52;;;;;;;6.75;4.40;;;;;;;18.69;80.82;100951.37;1750737;82;20968;-86
2022/06/27 03:16:19;;;;;;;6.47;3.92;;;;;;;18.77;80.80;100949.73;1750044;82;21018;-85
2022/06/27 03:18:47;;;;;;;7.22;3.72;;;;;;;18.87;80.57;100956.38;1749908;81;21123;-85
2022/06/27 03:21:24;;;;;;;4.45;4.05;;;;;;;18.96;80.15;100958.21;1711272;82;20888;-85
2022/06/27 03:23:56;;;;;;;6.50;3.65;;;;;;;19.08;79.99;100956.28;1749114;82;20912;-86
2022/06/27 03:26:23;;;;;;;5.00;4.60;;;;;;;19.18;79.29;100961.59;1749864;80;21362;-85
2022/06/27 03:28:51;;;;;;;7.20;4.95;;;;;;;19.29;79.19;100957.96;1749895;80;20929;-88
2022/06/27 03:31:17;;;;;;;4.95;4.47;;;;;;;19.42;78.88;100962.00;1749821;82;21135;-87
2022/06/27 03:33:46;;;;;;;5.40;3.83;;;;;;;19.55;78.97;100956.40;1749786;80;21941;-86
2022/06/27 03:36:23;;;;;;;5.92;4.58;;;;;;;19.65;78.75;100958.56;1732797;82;20921;-86
2022/06/27 03:38:49;;;;;;;6.47;3.77;;;;;;;19.76;78.14;100958.06;1749936;80;20892;-86
2022/06/27 03:41:17;;;;;;;6.87;4.20;;;;;;;19.87;77.72;100957.41;1749863;81;20928;-87
2022/06/27 03:43:44;;;;;;;4.80;4.28;;;;;;;19.98;77.15;100956.39;1749807;80;21125;-87
2022/06/27 03:46:10;;;;;;;6.78;3.98;;;;;;;20.10;76.10;100953.08;1749840;80;20900;-86
2022/06/27 03:51:25;;;;;;;6.50;3.90;;;;;;;20.37;74.81;100966.08;1747679;82;20896;-86
2022/06/27 03:53:52;;;;;;;8.78;4.28;;;;;;;20.49;73.90;100963.55;1749935;82;21362;-86
2022/06/27 03:56:21;;;;;;;5.40;3.65;;;;;;;20.60;73.00;100961.21;1750625;82;21884;-86
2022/06/27 03:58:48;;;;;;;5.95;4.03;;;;;;;20.72;72.38;100965.36;1749388;80;20857;-86
2022/06/27 04:01:15;;;;;;;9.60;7.92;;;;;;;20.84;71.86;100971.31;1749750;80;20881;-87
2022/06/27 04:03:42;;;;;;;4.67;4.00;;;;;;;20.95;71.06;100958.27;1750042;82;20881;-86
2022/06/27 04:06:14;;;;;;;5.83;3.50;;;;;;;21.07;70.65;100959.20;1751467;82;21370;-86
2022/06/27 04:08:42;;;;;;;5.53;3.52;;;;;;;21.21;70.32;100955.66;1751718;80;21070;-85
2022/06/27 04:11:09;;;;;;;4.83;4.25;;;;;;;21.33;69.80;100949.94;1750523;81;20987;-86
2022/06/27 04:13:39;;;;;;;3.92;3.58;;;;;;;21.51;69.12;100947.27;1750094;81;21007;-87
2022/06/27 04:16:09;;;;;;;4.35;3.62;;;;;;;21.84;68.50;100948.83;1725137;82;21488;-88
2022/06/27 04:18:54;;;;;;;4.67;3.77;;;;;;;22.32;67.27;100946.59;1749967;82;20885;-86
2022/06/27 04:21:32;;;;;;;4.47;3.77;;;;;;;22.92;65.62;100949.13;1742885;80;21150;-87
2022/06/27 04:24:07;;;;;;;6.12;3.62;;;;;;;23.54;63.68;100957.19;1728442;82;20893;-86
2022/06/27 04:26:35;;;;;;;7.03;3.27;;;;;;;24.11;61.51;100945.05;1749780;82;20877;-85
2022/06/27 04:29:02;;;;;;;4.30;3.65;;;;;;;24.65;59.63;100952.89;1749776;82;21390;-86
2022/06/27 04:31:30;;;;;;;6.87;3.95;;;;;;;25.19;57.69;100951.55;1749832;82;21055;-86
2022/06/27 04:33:57;;;;;;;5.28;3.20;;;;;;;25.75;55.78;100943.17;1749869;80;21165;-88
2022/06/27 04:36:23;;;;;;;4.00;3.00;;;;;;;26.27;54.22;100939.57;1747590;80;20876;-87
2022/06/27 04:38:50;;;;;;;5.62;3.17;;;;;;;26.75;52.58;100944.00;1747435;82;20991;-87
2022/06/27 04:41:35;;;;;;;3.33;3.02;;;;;;;27.22;51.45;100937.23;1747328;82;20885;-87
2022/06/27 04:44:03;;;;;;;5.40;3.20;;;;;;;27.71;50.00;100944.98;1747503;80;20897;-87
2022/06/27 04:49:42;;;;;;;3.83;3.37;;;;;;;28.70;46.82;100937.08;1850060;76;22782;-86
2022/06/27 04:52:12;;;;;;;4.37;3.27;;;;;;;29.02;46.27;100942.23;1812612;77;20857;-86
2022/06/27 04:54:41;;;;;;;4.72;3.15;;;;;;;29.38;45.11;100937.51;1784428;77;21296;-87
2022/06/27 04:57:08;;;;;;;5.10;2.90;;;;;;;29.74;44.28;100936.55;1802696;77;20907;-86
2022/06/27 04:59:37;;;;;;;5.75;2.92;;;;;;;30.08;43.07;100940.52;1811305;79;20900;-87
2022/06/27 05:02:08;;;;;;;6.22;2.55;;;;;;;30.35;42.47;100938.06;1788007;78;20993;-86
2022/06/27 05:04:36;;;;;;;3.58;2.75;;;;;;;30.61;41.56;100936.25;1797153;78;21303;-86
2022/06/27 05:07:03;;;;;;;2.72;2.45;;;;;;;30.89;41.16;100939.14;1781528;79;21289;-86
2022/06/27 05:09:30;;;;;;;4.40;2.77;;;;;;;31.10;40.35;100944.72;1797262;77;20940;-87
2022/06/27 05:11:57;;;;;;;3.00;2.70;;;;;;;31.33;39.32;100946.31;1811549;79;21353;-87
2022/06/27 05:14:24;;;;;;;6.80;3.08;;;;;;;31.54;38.96;100948.34;1737252;79;20939;-86
2022/06/27 05:16:53;;;;;;;19.15;14.13;;;;;;;31.80;38.34;100947.25;1781852;77;20967;-86
2022/06/27 05:19:21;;;;;;;7.40;5.12;;;;;;;32.08;37.52;100949.45;1802948;79;21175;-86
2022/06/27 05:21:49;;;;;;;5.05;2.80;;;;;;;32.30;37.42;100951.17;1771162;80;20952;-85
2022/06/27 05:24:17;;;;;;;2.45;2.25;;;;;;;32.57;37.24;100948.14;1800323;77;20912;-87
2022/06/27 05:26:45;;;;;;;3.80;2.92;;;;;;;32.79;36.51;100943.88;1796363;77;21044;-87
2022/06/27 05:29:14;;;;;;;5.03;2.22;;;;;;;33.02;35.80;100940.38;1797358;78;20990;-86
2022/06/27 05:31:41;;;;;;;4.00;2.83;;;;;;;33.28;35.18;100945.64;1808993;79;21808;-86
2022/06/27 05:34:08;;;;;;;3.10;2.30;;;;;;;33.49;34.80;100946.43;1810932;77;20857;-87
2022/06/27 05:36:34;;;;;;;3.55;3.08;;;;;;;33.56;34.58;100943.59;1793688;78;20848;-87
2022/06/27 05:39:05;;;;;;;4.50;2.87;;;;;;;33.61;34.61;100947.81;1805473;77;20960;-88
2022/06/27 05:41:32;;;;;;;5.05;2.20;;;;;;;33.57;34.18;100942.52;1805210;77;20821;-88
2022/06/27 05:44:01;;;;;;;6.33;2.40;;;;;;;33.54;34.07;100940.28;1809532;77;21166;-86
2022/06/27 05:46:28;;;;;;;4.65;2.98;;;;;;;33.53;33.97;100935.89;1798833;77;20834;-88
2022/06/27 05:49:15;;;;;;;5.72;2.72;;;;;;;33.51;33.87;100941.59;1694409;81;20920;-87
2022/06/27 05:51:52;;;;;;;5.97;2.20;;;;;;;33.50;33.40;100930.39;1712235;83;21422;-87
2022/06/27 05:54:21;;;;;;;2.80;2.05;;;;;;;33.52;32.20;100936.97;1713011;83;20857;-87
2022/06/27 05:56:48;;;;;;;4.22;1.98;;;;;;;33.59;32.26;100939.88;1677314;82;21213;-87
2022/06/27 05:59:16;;;;;;;2.40;2.05;;;;;;;33.78;31.46;100936.50;1678245;82;21509;-87
2022/06/27 06:01:45;;;;;;;5.95;2.30;;;;;;;34.00;31.70;100933.98;1670524;82;20920;-86
2022/06/27 06:04:12;;;;;;;4.15;2.52;;;;;;;34.30;30.93;100937.05;1683050;82;21200;-88
2022/06/27 06:06:40;;;;;;;5.40;2.58;;;;;;;34.61;30.79;100930.83;1709478;82;21082;-86
2022/06/27 06:09:07;;;;;;;4.22;2.17;;;;;;;34.81;30.45;100937.21;1685515;82;21384;-86
2022/06/27 06:11:34;;;;;;;6.20;4.87;;;;;;;34.99;29.68;100935.61;1714270;83;20920;-88
2022/06/27 06:14:02;;;;;;;2.95;2.22;;;;;;;35.20;29.53;100934.63;1695087;82;20924;-88
2022/06/27 06:16:30;;;;;;;4.05;1.72;;;;;;;35.37;29.08;100935.97;1679411;82;21474;-88
2022/06/27 06:18:57;;;;;;;5.17;2.12;;;;;;;35.55;28.42;100942.50;1711801;83;20956;-86
2022/06/27 06:21:23;;;;;;;3.65;2.00;;;;;;;35.65;27.71;100948.15;1794306;77;21248;-88
2022/06/27 06:23:52;;;;;;;3.60;2.40;;;;;;;35.76;27.76;100940.12;1798846;79;20848;-87
2022/06/27 06:26:19;;;;;;;7.83;1.70;;;;;;;35.89;27.90;100943.30;1809869;77;20897;-87
2022/06/27 06:28:51;;;;;;;7.33;1.90;;;;;;;36.11;27.74;100943.84;1805130;77;21018;-88
2022/06/27 06:31:24;;;;;;;3.65;1.90;;;;;;;36.17;27.08;100946.11;1815381;78;21386;-88
2022/06/27 06:33:56;;;;;;;2.08;1.95;;;;;;;36.08;26.99;100936.14;1799813;77;21812;-87
2022/06/27 06:36:23;;;;;;;2.67;1.67;;;;;;;36.04;26.81;100948.13;1793010;78;20890;-88
2022/06/27 06:38:51;;;;;;;10.10;7.72;;;;;;;36.11;26.73;100942.48;1790070;77;20886;-88
2022/06/27 06:41:21;;;;;;;2.35;2.12;;;;;;;36.22;26.91;100951.63;1794234;77;20912;-87
2022/06/27 06:43:48;;;;;;;2.87;1.75;;;;;;;36.24;26.85;100947.59;1792522;78;20934;-89
2022/06/27 06:46:28;;;;;;;5.20;1.80;;;;;;;36.25;26.66;100943.76;1764145;78;21215;-88
2022/06/27 06:49:08;;;;;;;3.50;2.27;;;;;;;36.38;26.96;100949.92;1794729;77;20982;-88
2022/06/27 06:51:37;;;;;;;6.87;1.87;;;;;;;36.52;27.08;100945.14;1810543;77;20908;-86
2022/06/27 06:54:04;;;;;;;3.37;1.72;;;;;;;36.56;27.27;100946.02;1794565;77;20951;-89
2022/06/27 06:56:32;;;;;;;6.28;1.82;;;;;;;36.52;26.86;100945.14;1800822;77;20805;-87
2022/06/27 06:58:59;;;;;;;2.40;2.20;;;;;;;36.54;27.24;100957.19;1793630;77;21200;-87
2022/06/27 07:01:27;;;;;;;2.45;2.00;;;;;;;36.59;27.70;100949.58;1803062;77;20959;-87
2022/06/27 07:03:55;;;;;;;4.72;2.25;;;;;;;36.64;28.31;100951.87;1810654;79;20884;-87
2022/06/27 07:06:29;;;;;;;2.70;1.98;;;;;;;36.80;28.61;100947.38;1795805;77;20915;-87
2022/06/27 07:08:59;;;;;;;1.62;1.52;;;;;;;36.84;28.60;100942.19;1790202;77;20881;-88
2022/06/27 07:11:31;;;;;;;5.28;1.75;;;;;;;36.91;27.88;100949.66;1788896;77;21212;-87
2022/06/27 07:13:59;;;;;;;4.40;2.25;;;;;;;36.88;27.65;100944.69;1801987;77;20940;-86
2022/06/27 07:16:26;;;;;;;3.22;1.77;;;;;;;36.84;27.69;100945.77;1808386;77;21400;-87
2022/06/27 07:18:56;;;;;;;3.50;1.80;;;;;;;36.86;27.46;100950.41;1810606;78;20900;-86
2022/06/27 07:21:28;;;;;;;4.08;1.50;;;;;;;36.90;27.15;100946.08;1810881;79;21272;-87
2022/06/27 07:23:53;;;;;;;2.17;1.62;;;;;;;37.05;27.30;100946.76;1804801;78;21369;-88
2022/06/27 07:26:20;;;;;;;2.52;2.02;;;;;;;37.21;26.65;100950.47;1809736;77;20798;-87
2022/06/27 07:28:47;;;;;;;2.22;1.55;;;;;;;37.34;26.57;100948.64;1792245;77;20931;-86
2022/06/27 07:31:14;;;;;;;3.75;1.67;;;;;;;37.49;26.17;100956.70;1797373;77;22199;-87
2022/06/27 07:33:42;;;;;;;2.70;1.37;;;;;;;37.59;26.07;100954.58;1810262;78;20841;-87
2022/06/27 07:36:15;;;;;;;3.30;1.60;;;;;;;37.71;25.29;100955.22;1799606;77;21132;-87
2022/06/27 07:38:43;;;;;;;3.58;2.37;;;;;;;37.76;24.74;100954.42;1810625;79;20856;-88
2022/06/27 07:41:13;;;;;;;4.58;4.17;;;;;;;37.84;24.79;100948.41;1796399;77;20958;-82
2022/06/27 07:43:39;;;;;;;1.98;1.55;;;;;;;37.89;24.97;100950.64;1811206;77;20908;-85
2022/06/27 07:46:06;;;;;;;3.45;1.92;;;;;;;38.04;24.83;100942.23;1811106;77;20897;-87
2022/06/27 07:48:33;;;;;;;1.80;1.70;;;;;;;38.13;24.45;100940.09;1793926;78;21252;-86
2022/06/27 07:51:00;;;;;;;1.82;1.12;;;;;;;38.23;24.32;100935.73;1810593;78;20845;-86
2022/06/27 07:53:27;;;;;;;4.00;1.30;;;;;;;38.29;24.41;100938.77;1810570;78;21003;-88
2022/06/27 07:56:00;;;;;;;2.27;2.10;;;;;;;38.40;24.57;100940.97;1809633;78;21418;-86
2022/06/27 07:58:39;;;;;;;3.08;1.65;;;;;;;38.61;24.45;100939.13;1790392;77;20939;-87
2022/06/27 08:01:06;;;;;;;4.17;1.50;;;;;;;38.81;24.05;100943.27;1795307;77;21263;-86
2022/06/27 08:03:39;;;;;;;3.85;1.42;;;;;;;38.88;24.07;100947.92;1810868;78;20817;-88
2022/06/27 08:06:21;;;;;;;1.20;1.10;;;;;;;38.96;24.10;100935.07;1795954;77;20920;-88
2022/06/27 08:08:54;;;;;;;4.45;1.50;;;;;;;39.09;23.91;100937.00;1797063;77;21460;-87
2022/06/27 08:11:25;;;;;;;2.22;1.30;;;;;;;39.23;23.61;100938.06;1813791;77;20868;-85
2022/06/27 08:13:55;;;;;;;2.98;1.35;;;;;;;39.37;22.91;100935.01;1802074;77;21173;-86
2022/06/27 08:16:24;;;;;;;3.30;1.60;;;;;;;39.39;22.89;100941.63;1807943;77;20884;-86
2022/06/27 08:18:52;;;;;;;7.87;2.15;;;;;;;39.32;22.69;100941.08;1813601;79;20928;-86
2022/06/27 08:21:24;;;;;;;5.37;2.17;;;;;;;39.24;22.93;100942.44;1802333;77;20857;-86
2022/06/27 08:23:53;;;;;;;6.08;3.37;;;;;;;39.22;22.93;100936.44;1808991;77;20982;-86
2022/06/27 08:26:20;;;;;;;2.27;1.80;;;;;;;39.23;23.17;100933.14;1809970;78;21313;-86
2022/06/27 08:28:47;;;;;;;4.20;1.90;;;;;;;39.21;22.79;100938.08;1796293;77;20922;-87
2022/06/27 08:31:14;;;;;;;7.85;3.40;;;;;;;39.17;22.46;100931.75;1807389;77;20914;-86
2022/06/27 08:33:43;;;;;;;3.00;1.60;;;;;;;39.03;22.79;100933.98;1805794;78;20853;-87
2022/06/27 08:36:09;;;;;;;1.50;1.20;;;;;;;38.90;23.02;100939.43;1806262;77;20896;-86
2022/06/27 08:38:40;;;;;;;1.87;1.30;;;;;;;38.74;22.36;100939.97;1813097;79;21310;-87
2022/06/27 08:41:07;;;;;;;3.83;2.02;;;;;;;38.51;22.89;100938.03;1806291;77;20912;-86
2022/06/27 08:43:34;;;;;;;5.03;4.58;;;;;;;38.35;23.46;100939.89;1796544;77;21382;-86
2022/06/27 08:46:04;;;;;;;3.90;1.77;;;;;;;38.33;23.34;100943.97;1801866;77;20879;-86
2022/06/27 08:48:31;;;;;;;3.52;2.35;;;;;;;38.31;23.15;100940.67;1789402;77;20934;-86
2022/06/27 08:51:02;;;;;;;3.20;1.12;;;;;;;38.23;23.53;100940.66;1805622;79;21240;-87
2022/06/27 08:53:32;;;;;;;5.83;2.02;;;;;;;38.13;23.41;100940.62;1792224;77;21028;-87
2022/06/27 08:55:58;;;;;;;5.58;1.70;;;;;;;38.08;23.75;100939.23;1804245;77;20871;-87
2022/06/27 08:58:25;;;;;;;2.22;2.02;;;;;;;38.14;23.92;100945.84;1801528;77;21022;-87
2022/06/27 09:00:53;;;;;;;2.35;1.20;;;;;;;38.22;23.74;100943.14;1811520;77;20841;-88
2022/06/27 09:03:21;;;;;;;3.33;1.22;;;;;;;38.27;23.06;100940.96;1799166;77;21335;-87
2022/06/27 09:06:00;;;;;;;4.40;1.82;;;;;;;38.35;23.07;100941.26;1810879;78;21054;-87
2022/06/27 09:08:32;;;;;;;2.05;1.30;;;;;;;38.38;22.95;100945.89;1793407;77;20907;-88
2022/06/27 09:11:00;;;;;;;8.33;6.03;;;;;;;38.34;22.82;100945.08;1800754;77;20869;-88
2022/06/27 09:13:27;;;;;;;7.85;7.20;;;;;;;38.33;23.99;100942.08;1789841;77;20970;-90
2022/06/27 09:16:05;;;;;;;3.67;2.17;;;;;;;38.44;24.17;100942.08;1809130;77;21298;-86
2022/06/27 09:18:36;;;;;;;2.30;1.32;;;;;;;38.51;23.77;100939.40;1810540;77;20850;-87
2022/06/27 09:21:05;;;;;;;1.52;1.40;;;;;;;38.56;23.09;100939.40;1810832;79;20849;-88
2022/06/27 09:23:49;;;;;;;5.50;1.95;;;;;;;38.59;22.49;100945.44;1810564;79;21319;-88
2022/06/27 09:26:19;;;;;;;2.75;1.30;;;;;;;38.47;22.59;100945.66;1777545;77;21061;-87
2022/06/27 09:29:08;;;;;;;2.17;1.60;;;;;;;38.39;22.72;100946.19;1809166;79;21232;-86
2022/06/27 09:31:45;;;;;;;5.53;3.77;;;;;;;38.32;22.98;100934.93;1809800;77;20900;-86
2022/06/27 09:34:20;;;;;;;4.87;1.72;;;;;;;38.31;22.71;100941.52;1790519;77;20864;-88
2022/06/27 09:36:59;;;;;;;3.72;3.08;;;;;;;38.31;22.38;100935.19;1804615;78;20913;-87
2022/06/27 09:39:30;;;;;;;5.83;1.87;;;;;;;38.35;22.61;100929.45;1811069;79;20955;-88
2022/06/27 09:42:10;;;;;;;3.42;1.50;;;;;;;38.41;22.47;100934.41;1810707;77;21819;-88
2022/06/27 09:44:39;;;;;;;2.87;1.22;;;;;;;38.48;22.27;100925.41;1802928;77;21401;-88
2022/06/27 09:47:13;;;;;;;3.40;1.50;;;;;;;38.58;21.89;100925.43;1807451;77;21094;-88
2022/06/27 09:49:47;;;;;;;2.92;1.30;;;;;;;38.65;22.04;100923.23;1788638;77;21533;-89
2022/06/27 09:52:21;;;;;;;4.15;1.25;;;;;;;38.73;21.98;100929.56;1804138;77;20841;-88
2022/06/27 09:54:49;;;;;;;3.92;1.15;;;;;;;38.84;21.92;100922.69;1798047;77;21223;-89
2022/06/27 09:57:17;;;;;;;1.35;1.20;;;;;;;38.93;22.02;100923.78;1804682;77;21014;-88
2022/06/27 09:59:46;;;;;;;3.30;1.60;;;;;;;38.98;22.14;100921.09;1757523;79;20947;-88
2022/06/27 10:02:16;;;;;;;6.22;3.65;;;;;;;39.04;22.19;100922.71;1797629;77;21318;-87
2022/06/27 10:04:43;;;;;;;4.33;1.55;;;;;;;39.07;22.05;100919.98;1810533;77;20861;-90
2022/06/27 10:07:12;;;;;;;3.15;1.02;;;;;;;39.13;21.85;100923.82;1810812;79;21889;-87
2022/06/27 10:09:40;;;;;;;2.47;1.22;;;;;;;39.04;21.59;100924.08;1799191;77;20892;-88
2022/06/27 10:12:36;;;;;;;4.83;1.50;;;;;;;38.90;21.74;100922.97;1797665;77;21472;-88
2022/06/27 10:15:16;;;;;;;12.15;11.25;;;;;;;38.77;21.39;100908.70;1791901;79;20982;-90
2022/06/27 10:17:50;;;;;;;3.05;1.50;;;;;;;38.71;21.93;100900.75;1786564;77;21065;-89
2022/06/27 10:20:30;;;;;;;4.40;1.37;;;;;;;38.78;22.20;100915.03;1794805;77;21213;-89
2022/06/27 10:23:27;;;;;;;1.62;0.95;;;;;;;38.82;21.65;100908.43;1809087;78;21418;-88
2022/06/27 10:25:53;;;;;;;1.65;1.02;;;;;;;38.75;21.98;100902.69;1799127;77;20825;-87
2022/06/27 10:28:22;;;;;;;2.45;1.20;;;;;;;38.60;22.57;100915.02;1805385;79;21474;-87
2022/06/27 10:30:58;;;;;;;2.02;1.40;;;;;;;38.51;22.36;100918.84;1788792;77;21088;-88
2022/06/27 10:33:33;;;;;;;3.92;1.25;;;;;;;38.51;22.31;100905.66;1808260;77;21071;-87
2022/06/27 10:36:14;;;;;;;5.83;1.40;;;;;;;38.47;22.21;100899.89;1792533;77;21381;-87
2022/06/27 10:38:45;;;;;;;1.02;0.98;;;;;;;38.45;21.86;100908.11;1805257;77;20857;-88
2022/06/27 10:41:20;;;;;;;4.17;1.27;;;;;;;38.38;22.62;100905.64;1797151;77;20904;-88
2022/06/27 10:43:54;;;;;;;2.65;1.40;;;;;;;38.33;22.46;100905.08;1799300;79;20868;-87
2022/06/27 10:46:27;;;;;;;3.40;1.35;;;;;;;38.27;22.96;100901.23;1804899;77;21361;-88
2022/06/27 10:49:00;;;;;;;4.00;1.25;;;;;;;38.31;22.56;100897.67;1795200;77;20892;-88
2022/06/27 10:51:34;;;;;;;5.42;1.30;;;;;;;38.29;22.91;100899.86;1805227;77;20864;-87
2022/06/27 10:54:08;;;;;;;2.52;1.32;;;;;;;38.26;22.65;100906.42;1787659;77;20912;-90
2022/06/27 10:56:55;;;;;;;6.17;2.05;;;;;;;38.25;22.53;100900.12;1791923;78;20855;-87
2022/06/27 10:59:28;;;;;;;1.32;1.22;;;;;;;38.19;22.86;100895.72;1792345;78;21216;-88
2022/06/27 11:02:05;;;;;;;3.05;1.50;;;;;;;38.28;22.95;100898.75;1804683;78;21383;-87
2022/06/27 11:04:34;;;;;;;5.67;1.30;;;;;;;38.27;23.08;100899.86;1810315;79;20909;-88
2022/06/27 11:07:07;;;;;;;;;;;;;;;38.25;22.89;100896.02;1806203;77;21382;-88
2022/06/27 11:09:38;;;;;;;3.25;1.20;;;;;;;38.16;22.72;100893.53;1804958;77;20411;-89
2022/06/27 11:12:06;;;;;;;7.30;1.90;;;;;;;38.14;23.00;100893.79;1799116;77;21869;-86
2022/06/27 11:14:53;;;;;;;5.47;1.35;;;;;;;38.16;22.61;100882.57;1795960;78;20880;-87
2022/06/27 11:17:37;;;;;;;2.52;1.55;;;;;;;38.09;22.17;100882.02;1806908;78;20857;-86
2022/06/27 11:20:12;;;;;;;;;;;;;;;37.99;22.46;100873.72;1808327;77;20978;-87
2022/06/27 11:22:40;;;;;;;3.98;1.67;;;;;;;37.94;22.72;100885.48;1794882;77;20146;-89
2022/06/27 11:25:08;;;;;;;1.60;1.50;;;;;;;37.78;22.39;100879.14;1794058;77;21840;-88
2022/06/27 11:27:48;;;;;;;5.33;1.60;;;;;;;37.51;22.86;100870.50;1794672;77;20999;-87
2022/06/27 11:33:25;;;;;;;3.75;1.52;;;;;;;37.07;23.44;100871.30;1805770;79;20833;-88
2022/06/27 11:35:53;;;;;;;3.55;1.57;;;;;;;36.88;23.87;100876.34;1798687;77;20883;-89
2022/06/27 11:38:29;;;;;;;5.05;1.52;;;;;;;36.67;23.63;100872.63;1792600;78;21831;-89
2022/06/27 11:41:07;;;;;;;2.83;1.95;;;;;;;36.40;24.11;100872.09;1808814;78;21007;-87
2022/06/27 11:44:04;;;;;;;1.60;1.50;;;;;;;36.06;24.82;100871.41;1805363;77;21092;-88
2022/06/27 11:46:45;;;;;;;2.85;2.20;;;;;;;35.77;25.08;100872.16;1806193;79;20869;-88
2022/06/27 11:49:12;;;;;;;4.40;2.25;;;;;;;35.46;25.09;100880.75;1810279;78;20865;-86